Time;durP1;ratioP1;P1;durP2;ratioP2;P2;SDS_P1;SDS_P2;PMS_P1;PMS_P2;Temp;Humidity;BMP_temperature;BMP_pressure;BME280_temperature;BME280_humidity;BME280_pressure;Samples;Min_cycle;Max_cycle;Signal;HPM_P1;HPM_P2
2022/12/30 00:01:52;;;;;;;;;;;7.50;80.30;;;;;;4988057;28;20269;-75
2022/12/30 00:04:17;;;;;;;;;;;7.50;80.30;;;;;;4987091;28;20297;-75
2022/12/30 00:06:43;;;;;;;;;;;7.50;80.10;;;;;;4993479;28;20303;-75
2022/12/30 00:09:08;;;;;;;;;;;7.50;80.00;;;;;;4988755;28;19964;-75
2022/12/30 00:11:34;;;;;;;;;;;7.40;80.70;;;;;;4986868;28;20436;-75
2022/12/30 00:33:21;;;;;;;;;;;7.30;80.90;;;;;;5007278;28;19940;-76
2022/12/30 00:35:47;;;;;;;;;;;7.30;80.90;;;;;;5005302;28;19918;-76
2022/12/30 00:38:12;;;;;;;;;;;7.30;81.10;;;;;;5004205;28;19959;-76
2022/12/30 00:43:07;;;;;;;;;;;7.30;81.00;;;;;;5001745;28;19960;-76
2022/12/30 00:43:23;;;;;;;;;;;7.30;80.80;;;;;;5011820;28;19913;-76
2022/12/30 00:45:49;;;;;;;;;;;7.30;80.50;;;;;;4987436;28;19936;-76
2022/12/30 00:56:27;;;;;;;;;;;7.30;80.80;;;;;;5003516;28;19925;-76
2022/12/30 00:58:53;;;;;;;;;;;7.30;80.60;;;;;;5003480;28;19914;-76
2022/12/30 01:01:18;;;;;;;;;;;7.20;80.50;;;;;;5006147;28;19913;-76
2022/12/30 01:03:44;;;;;;;;;;;7.30;80.60;;;;;;5005301;28;20416;-76
2022/12/30 01:06:12;;;;;;;;;;;7.20;80.80;;;;;;5011151;28;19987;-75
2022/12/30 01:08:37;;;;;;;;;;;7.20;80.80;;;;;;5003276;28;19929;-76
2022/12/30 01:11:07;;;;;;;;;;;7.20;80.80;;;;;;5012458;28;19913;-77
2022/12/30 01:13:33;;;;;;;;;;;7.20;80.50;;;;;;5004642;28;19922;-76
2022/12/30 01:16:05;;;;;;;;;;;7.20;80.60;;;;;;4997418;28;20075;-76
2022/12/30 01:18:30;;;;;;;;;;;7.20;80.80;;;;;;5016789;28;19943;-77
2022/12/30 01:20:58;;;;;;;;;;;7.20;80.70;;;;;;5011084;28;19918;-76
2022/12/30 01:23:24;;;;;;;;;;;7.30;80.60;;;;;;5006562;28;20012;-74
2022/12/30 01:25:49;;;;;;;;;;;7.20;80.50;;;;;;4991504;28;20040;-74
2022/12/30 01:28:15;;;;;;;;;;;7.20;80.50;;;;;;5001445;28;19948;-77
2022/12/30 01:30:40;;;;;;;;;;;7.10;80.80;;;;;;5004642;28;19913;-77
2022/12/30 01:33:05;;;;;;;;;;;7.10;80.70;;;;;;5015535;28;20008;-75
2022/12/30 01:35:31;;;;;;;;;;;7.10;80.90;;;;;;5008442;28;19917;-75
2022/12/30 01:37:57;;;;;;;;;;;7.00;81.20;;;;;;5014802;28;19913;-75
2022/12/30 01:40:22;;;;;;;;;;;7.10;80.90;;;;;;5006618;28;19919;-74
2022/12/30 01:42:48;;;;;;;;;;;7.10;81.20;;;;;;5002878;28;19913;-74
2022/12/30 01:45:17;;;;;;;;;;;7.10;81.30;;;;;;5008237;28;20000;-73
2022/12/30 01:47:42;;;;;;;;;;;7.10;81.30;;;;;;5014937;28;20012;-74
2022/12/30 01:50:11;;;;;;;;;;;7.10;81.20;;;;;;5010730;28;20004;-74
2022/12/30 01:52:44;;;;;;;;;;;7.10;81.00;;;;;;5006523;28;19917;-75
2022/12/30 01:55:13;;;;;;;;;;;7.00;81.30;;;;;;5004321;28;19925;-74
2022/12/30 01:57:40;;;;;;;;;;;7.10;81.20;;;;;;5005194;28;19918;-74
2022/12/30 02:00:07;;;;;;;;;;;7.10;81.20;;;;;;4989132;28;20281;-75
2022/12/30 02:02:33;;;;;;;;;;;7.10;81.10;;;;;;5005592;28;19918;-75
2022/12/30 02:04:59;;;;;;;;;;;7.10;81.00;;;;;;5012907;28;19936;-76
2022/12/30 02:07:30;;;;;;;;;;;7.00;81.20;;;;;;5006067;28;19953;-75
2022/12/30 02:09:56;;;;;;;;;;;7.00;81.30;;;;;;5007071;28;19918;-74
2022/12/30 02:12:22;;;;;;;;;;;7.00;81.20;;;;;;5016565;28;19920;-74
2022/12/30 02:14:48;;;;;;;;;;;7.00;81.30;;;;;;5009376;28;19918;-74
2022/12/30 02:17:13;;;;;;;;;;;7.00;81.30;;;;;;5008473;28;19925;-74
2022/12/30 02:19:38;;;;;;;;;;;7.00;81.40;;;;;;5012314;28;19914;-74
2022/12/30 02:22:13;;;;;;;;;;;7.00;81.40;;;;;;4992492;28;19917;-74
2022/12/30 02:24:48;;;;;;;;;;;7.00;81.40;;;;;;5004497;28;20293;-75
2022/12/30 02:27:21;;;;;;;;;;;7.00;81.30;;;;;;5004919;28;19918;-74
2022/12/30 02:30:05;;;;;;;;;;;7.00;81.30;;;;;;5007294;28;19921;-74
2022/12/30 02:32:36;;;;;;;;;;;7.00;81.20;;;;;;5005680;28;19913;-75
2022/12/30 02:35:10;;;;;;;;;;;6.90;81.30;;;;;;5006838;28;20277;-74
2022/12/30 02:37:53;;;;;;;;;;;6.90;81.30;;;;;;4984178;28;20395;-74
2022/12/30 02:40:24;;;;;;;;;;;6.90;81.50;;;;;;5006413;28;19925;-74
2022/12/30 02:45:45;;;;;;;;;;;7.00;81.30;;;;;;5003299;28;21226;-74
2022/12/30 02:48:16;;;;;;;;;;;7.00;81.20;;;;;;5007019;28;19936;-74
2022/12/30 02:53:28;;;;;;;;;;;6.90;81.00;;;;;;5016761;28;19921;-74
2022/12/30 02:55:54;;;;;;;;;;;6.90;81.30;;;;;;5011315;22;19926;-84
2022/12/30 02:58:20;;;;;;;;;;;6.80;81.20;;;;;;4978763;28;20006;-84
2022/12/30 03:03:58;;;;;;;;;;;6.80;81.30;;;;;;4985081;28;19924;-83
2022/12/30 03:06:34;;;;;;;;;;;6.90;81.40;;;;;;4994933;28;19972;-84
2022/12/30 03:09:05;;;;;;;;;;;6.90;81.20;;;;;;4994997;28;19918;-84
2022/12/30 03:11:36;;;;;;;;;;;6.80;81.40;;;;;;4990401;28;19914;-84
2022/12/30 03:14:03;;;;;;;;;;;6.90;81.60;;;;;;4996007;28;20023;-84
2022/12/30 03:16:33;;;;;;;;;;;6.80;81.50;;;;;;4987741;28;20395;-84
2022/12/30 03:18:59;;;;;;;;;;;6.90;81.20;;;;;;4999676;28;20414;-84
2022/12/30 03:21:26;;;;;;;;;;;6.80;81.30;;;;;;5013696;28;19928;-84
2022/12/30 03:29:24;;;;;;;;;;;6.80;81.30;;;;;;4996825;28;19998;-85
2022/12/30 03:31:50;;;;;;;;;;;6.80;81.60;;;;;;4997581;28;19914;-85
2022/12/30 03:34:15;;;;;;;;;;;6.70;81.90;;;;;;5002957;28;20376;-84
2022/12/30 03:36:43;;;;;;;;;;;6.80;81.60;;;;;;4999936;28;19921;-86
2022/12/30 03:39:13;;;;;;;;;;;6.80;81.70;;;;;;4996996;28;19914;-84
2022/12/30 03:41:39;;;;;;;;;;;6.80;81.60;;;;;;4992770;28;20344;-85
2022/12/30 03:44:04;;;;;;;;;;;6.80;81.30;;;;;;4992472;28;20600;-85
2022/12/30 03:46:31;;;;;;;;;;;6.80;81.20;;;;;;4990485;28;19914;-84
2022/12/30 03:48:56;;;;;;;;;;;6.80;81.40;;;;;;4989966;28;20178;-84
2022/12/30 03:51:22;;;;;;;;;;;6.70;81.70;;;;;;4992400;28;20444;-85
2022/12/30 03:53:47;;;;;;;;;;;6.70;81.50;;;;;;5004596;28;19917;-84
2022/12/30 03:56:15;;;;;;;;;;;6.70;81.50;;;;;;4997617;28;20194;-85
2022/12/30 03:58:40;;;;;;;;;;;6.60;81.50;;;;;;4995727;28;20069;-85
2022/12/30 04:01:05;;;;;;;;;;;6.70;81.70;;;;;;4993148;28;19936;-85
2022/12/30 04:03:31;;;;;;;;;;;6.60;81.70;;;;;;4998857;28;19914;-84
2022/12/30 04:05:57;;;;;;;;;;;6.60;81.70;;;;;;4991141;28;19925;-85
2022/12/30 04:08:22;;;;;;;;;;;6.70;81.80;;;;;;4991715;28;20292;-84
2022/12/30 04:10:48;;;;;;;;;;;6.70;81.60;;;;;;4995701;28;19922;-84
2022/12/30 04:13:13;;;;;;;;;;;6.70;81.70;;;;;;4990667;28;19921;-84
2022/12/30 04:15:39;;;;;;;;;;;6.70;81.60;;;;;;4991269;28;19922;-85
2022/12/30 04:18:04;;;;;;;;;;;6.70;81.40;;;;;;5011704;28;19910;-85
2022/12/30 04:20:30;;;;;;;;;;;6.70;81.50;;;;;;4999020;28;19913;-85
2022/12/30 04:22:57;;;;;;;;;;;6.60;81.80;;;;;;4994293;28;19968;-84
2022/12/30 04:25:22;;;;;;;;;;;6.60;81.80;;;;;;4989834;28;19920;-85
2022/12/30 04:27:48;;;;;;;;;;;6.50;81.70;;;;;;4996537;28;19914;-83
2022/12/30 04:30:13;;;;;;;;;;;6.60;81.90;;;;;;4991348;28;20013;-83
2022/12/30 04:32:39;;;;;;;;;;;6.50;81.80;;;;;;4997097;28;19964;-85
2022/12/30 04:35:05;;;;;;;;;;;6.50;81.90;;;;;;4990954;28;19918;-84
2022/12/30 04:37:30;;;;;;;;;;;6.50;82.10;;;;;;4988299;28;19921;-84
2022/12/30 04:39:56;;;;;;;;;;;6.50;82.50;;;;;;4991247;28;19920;-83
2022/12/30 04:42:21;;;;;;;;;;;6.40;82.30;;;;;;4995671;28;20260;-84
2022/12/30 04:44:46;;;;;;;;;;;6.40;82.40;;;;;;4995503;28;19914;-84
2022/12/30 04:47:12;;;;;;;;;;;6.50;82.10;;;;;;5001225;28;19924;-84
2022/12/30 04:49:37;;;;;;;;;;;6.40;82.30;;;;;;5002023;28;19914;-84
2022/12/30 04:52:03;;;;;;;;;;;6.40;82.50;;;;;;5006467;28;20372;-85
2022/12/30 04:54:28;;;;;;;;;;;6.40;82.50;;;;;;4997653;28;19993;-84
2022/12/30 04:56:54;;;;;;;;;;;6.30;82.50;;;;;;4996467;28;19917;-84
2022/12/30 04:59:19;;;;;;;;;;;6.30;82.40;;;;;;4996286;28;19976;-84
2022/12/30 05:01:45;;;;;;;;;;;6.30;82.50;;;;;;4998028;28;19914;-84
2022/12/30 05:04:10;;;;;;;;;;;6.30;81.90;;;;;;5005267;28;20331;-84
2022/12/30 05:06:36;;;;;;;;;;;6.20;82.40;;;;;;4998317;28;19913;-83
2022/12/30 05:09:02;;;;;;;;;;;6.10;82.60;;;;;;4997536;28;20295;-84
2022/12/30 05:11:27;;;;;;;;;;;6.10;82.70;;;;;;4993127;28;19928;-84
2022/12/30 05:13:52;;;;;;;;;;;6.10;83.00;;;;;;5000779;28;20379;-83
2022/12/30 05:16:18;;;;;;;;;;;6.10;82.60;;;;;;5001517;28;19963;-84
2022/12/30 05:18:43;;;;;;;;;;;6.20;82.40;;;;;;4997220;28;19961;-84
2022/12/30 05:21:09;;;;;;;;;;;6.20;82.40;;;;;;5006158;28;19914;-84
2022/12/30 05:26:18;;;;;;;;;;;6.00;83.00;;;;;;4993115;28;19921;-84
2022/12/30 05:28:45;;;;;;;;;;;6.10;82.70;;;;;;4991913;28;19925;-84
2022/12/30 05:31:11;;;;;;;;;;;6.10;82.90;;;;;;4996230;28;19914;-84
2022/12/30 05:33:36;;;;;;;;;;;6.00;83.00;;;;;;4993654;28;19960;-84
2022/12/30 05:36:02;;;;;;;;;;;6.00;83.10;;;;;;4993624;28;19965;-83
2022/12/30 05:38:27;;;;;;;;;;;6.00;83.20;;;;;;4990100;28;19920;-84
2022/12/30 05:40:53;;;;;;;;;;;5.90;83.40;;;;;;4996411;28;19914;-84
2022/12/30 05:43:19;;;;;;;;;;;6.00;83.30;;;;;;4997930;28;19968;-84
2022/12/30 05:45:44;;;;;;;;;;;6.00;83.10;;;;;;4996521;28;19961;-84
2022/12/30 05:48:10;;;;;;;;;;;6.00;83.60;;;;;;4992797;28;19914;-84
2022/12/30 05:50:35;;;;;;;;;;;5.90;83.80;;;;;;4993519;28;19918;-84
2022/12/30 05:53:01;;;;;;;;;;;5.90;83.50;;;;;;4993476;28;19914;-84
2022/12/30 05:55:26;;;;;;;;;;;5.90;83.80;;;;;;4990042;28;19922;-83
2022/12/30 05:57:52;;;;;;;;;;;5.90;83.60;;;;;;5007152;28;19949;-84
2022/12/30 06:00:17;;;;;;;;;;;6.00;83.60;;;;;;5004961;28;19945;-84
2022/12/30 06:02:42;;;;;;;;;;;6.00;83.50;;;;;;4995703;28;19914;-84
2022/12/30 06:05:08;;;;;;;;;;;5.90;83.40;;;;;;4994250;28;19937;-83
2022/12/30 06:07:34;;;;;;;;;;;6.00;83.60;;;;;;4993590;28;20020;-83
2022/12/30 06:09:59;;;;;;;;;;;6.00;83.30;;;;;;4985468;28;19920;-83
2022/12/30 06:12:24;;;;;;;;;;;6.00;83.30;;;;;;4993306;28;19957;-84
2022/12/30 06:14:50;;;;;;;;;;;6.00;83.20;;;;;;4994649;28;19922;-85
2022/12/30 06:17:15;;;;;;;;;;;6.00;83.00;;;;;;4990447;28;19973;-83
2022/12/30 06:19:41;;;;;;;;;;;6.00;82.90;;;;;;5000429;28;19967;-84
2022/12/30 06:22:07;;;;;;;;;;;6.00;83.00;;;;;;4997027;28;20009;-84
2022/12/30 06:24:32;;;;;;;;;;;6.10;82.90;;;;;;4996667;28;19961;-84
2022/12/30 06:26:57;;;;;;;;;;;6.10;82.80;;;;;;4991963;28;19937;-84
2022/12/30 06:29:23;;;;;;;;;;;6.10;82.70;;;;;;4994810;28;19914;-84
2022/12/30 06:31:48;;;;;;;;;;;6.10;82.70;;;;;;4991982;28;19941;-83
2022/12/30 06:34:14;;;;;;;;;;;6.00;82.90;;;;;;4998746;28;19968;-84
2022/12/30 06:36:39;;;;;;;;;;;6.00;83.20;;;;;;4982626;28;19929;-84
2022/12/30 06:39:05;;;;;;;;;;;6.10;83.00;;;;;;4991590;28;19918;-85
2022/12/30 06:41:30;;;;;;;;;;;6.10;82.80;;;;;;4993698;28;19914;-85
2022/12/30 06:43:56;;;;;;;;;;;6.10;82.80;;;;;;5003375;28;19921;-84
2022/12/30 06:46:21;;;;;;;;;;;6.10;82.90;;;;;;4990745;28;20004;-84
2022/12/30 06:48:46;;;;;;;;;;;6.00;83.10;;;;;;4998967;28;19941;-84
2022/12/30 06:51:12;;;;;;;;;;;6.10;82.90;;;;;;5004219;28;20399;-84
2022/12/30 06:53:37;;;;;;;;;;;6.10;82.90;;;;;;4993386;28;20379;-84
2022/12/30 06:56:03;;;;;;;;;;;6.20;82.60;;;;;;5013071;28;19940;-84
2022/12/30 06:58:28;;;;;;;;;;;6.20;82.40;;;;;;4998028;28;19961;-84
2022/12/30 07:00:54;;;;;;;;;;;6.20;82.40;;;;;;4988988;28;19932;-84
2022/12/30 07:03:19;;;;;;;;;;;6.30;82.10;;;;;;5006092;28;20407;-83
2022/12/30 07:05:45;;;;;;;;;;;6.20;82.50;;;;;;4989921;28;21726;-84
2022/12/30 07:08:10;;;;;;;;;;;6.20;82.30;;;;;;4991876;28;19913;-84
2022/12/30 07:10:36;;;;;;;;;;;6.30;81.90;;;;;;4998010;28;19929;-84
2022/12/30 07:13:01;;;;;;;;;;;6.20;81.90;;;;;;4993881;28;19913;-84
2022/12/30 07:15:27;;;;;;;;;;;6.10;82.30;;;;;;4993223;28;19925;-83
2022/12/30 07:17:52;;;;;;;;;;;6.20;82.60;;;;;;4992895;28;19914;-83
2022/12/30 07:20:18;;;;;;;;;;;6.30;81.90;;;;;;4995021;28;19918;-84
2022/12/30 07:22:43;;;;;;;;;;;6.40;81.70;;;;;;4988959;28;19964;-84
2022/12/30 07:25:09;;;;;;;;;;;6.40;81.50;;;;;;4991988;28;19913;-84
2022/12/30 07:27:34;;;;;;;;;;;6.30;81.70;;;;;;4997262;28;19924;-84
2022/12/30 07:30:00;;;;;;;;;;;6.50;81.60;;;;;;5002318;28;19925;-85
2022/12/30 07:32:25;;;;;;;;;;;6.40;81.70;;;;;;4991640;28;19928;-84
2022/12/30 07:34:51;;;;;;;;;;;6.40;81.40;;;;;;4994742;28;19972;-85
2022/12/30 07:37:16;;;;;;;;;;;6.30;81.70;;;;;;4999061;28;19917;-86
2022/12/30 07:39:41;;;;;;;;;;;6.30;81.80;;;;;;5007900;28;19928;-86
2022/12/30 07:42:07;;;;;;;;;;;6.40;81.70;;;;;;4993137;28;19960;-85
2022/12/30 07:44:32;;;;;;;;;;;6.40;81.40;;;;;;4993810;28;19913;-86
2022/12/30 07:46:58;;;;;;;;;;;6.50;81.40;;;;;;4984564;28;19961;-86
2022/12/30 07:49:23;;;;;;;;;;;6.50;81.40;;;;;;4991351;28;20379;-87
2022/12/30 07:51:49;;;;;;;;;;;6.40;81.50;;;;;;4988004;28;20287;-85
2022/12/30 07:54:14;;;;;;;;;;;6.50;81.60;;;;;;5003758;28;19921;-83
2022/12/30 07:56:40;;;;;;;;;;;6.50;81.50;;;;;;4999735;28;19933;-85
2022/12/30 07:59:05;;;;;;;;;;;6.50;81.50;;;;;;4994053;28;20367;-84
2022/12/30 08:01:30;;;;;;;;;;;6.50;81.50;;;;;;4991456;28;19921;-84
2022/12/30 08:03:56;;;;;;;;;;;6.50;81.50;;;;;;4992674;28;19914;-84
2022/12/30 08:06:22;;;;;;;;;;;6.60;81.70;;;;;;4993244;28;19921;-86
2022/12/30 08:08:47;;;;;;;;;;;6.50;81.50;;;;;;4991045;28;19962;-86
2022/12/30 08:11:13;;;;;;;;;;;6.50;81.50;;;;;;4989121;28;20004;-82
2022/12/30 08:13:40;;;;;;;;;;;6.60;81.70;;;;;;4988322;28;20008;-84
2022/12/30 08:16:06;;;;;;;;;;;6.60;81.50;;;;;;4994078;28;19918;-86
2022/12/30 08:18:32;;;;;;;;;;;6.70;81.50;;;;;;5009369;28;19907;-86
2022/12/30 08:21:01;;;;;;;;;;;6.70;81.30;;;;;;4992873;28;20057;-85
2022/12/30 08:23:28;;;;;;;;;;;6.60;81.50;;;;;;5011758;28;19914;-86
2022/12/30 08:25:53;;;;;;;;;;;6.60;81.40;;;;;;4995508;28;19913;-85
2022/12/30 08:28:19;;;;;;;;;;;6.80;81.30;;;;;;5004177;28;19971;-86
2022/12/30 08:30:44;;;;;;;;;;;6.80;81.30;;;;;;4996848;28;19924;-85
2022/12/30 08:33:10;;;;;;;;;;;6.90;80.90;;;;;;4999447;28;19917;-85
2022/12/30 08:35:35;;;;;;;;;;;7.00;80.70;;;;;;4988694;28;19922;-85
2022/12/30 08:38:00;;;;;;;;;;;7.00;80.80;;;;;;4982040;28;19918;-85
2022/12/30 08:40:26;;;;;;;;;;;7.00;80.80;;;;;;4989595;28;19917;-85
2022/12/30 08:42:51;;;;;;;;;;;7.00;80.80;;;;;;4997822;28;19952;-84
2022/12/30 08:45:17;;;;;;;;;;;7.00;80.50;;;;;;4986061;28;19922;-84
2022/12/30 08:47:42;;;;;;;;;;;7.00;80.50;;;;;;4990686;28;19914;-83
2022/12/30 08:50:08;;;;;;;;;;;7.10;80.50;;;;;;4996688;28;19913;-83
2022/12/30 08:52:35;;;;;;;;;;;7.10;80.70;;;;;;4991621;28;19918;-84
2022/12/30 08:55:00;;;;;;;;;;;7.10;80.40;;;;;;4988583;28;19964;-84
2022/12/30 08:57:25;;;;;;;;;;;7.20;79.90;;;;;;4996180;28;19914;-86
2022/12/30 08:59:51;;;;;;;;;;;7.30;80.00;;;;;;4995800;28;19914;-84
2022/12/30 09:02:16;;;;;;;;;;;7.40;79.40;;;;;;4992466;28;20024;-85
2022/12/30 09:04:42;;;;;;;;;;;7.40;79.70;;;;;;4996580;28;19932;-83
2022/12/30 09:07:07;;;;;;;;;;;7.30;79.80;;;;;;4992540;28;20020;-83
2022/12/30 09:09:33;;;;;;;;;;;7.40;79.70;;;;;;4988708;28;19914;-85
2022/12/30 09:11:58;;;;;;;;;;;7.60;79.20;;;;;;4982151;28;20383;-83
2022/12/30 09:14:24;;;;;;;;;;;7.60;79.30;;;;;;4983484;28;20331;-82
2022/12/30 09:16:49;;;;;;;;;;;7.60;79.20;;;;;;4973464;28;19926;-85
2022/12/30 09:19:15;;;;;;;;;;;7.60;79.10;;;;;;4990421;28;20526;-83
2022/12/30 09:21:41;;;;;;;;;;;7.60;79.30;;;;;;4979477;28;20001;-83
2022/12/30 09:24:07;;;;;;;;;;;7.70;79.10;;;;;;4988459;28;19949;-83
2022/12/30 09:26:32;;;;;;;;;;;7.80;78.70;;;;;;4978329;28;20291;-84
2022/12/30 09:28:58;;;;;;;;;;;7.80;78.70;;;;;;4993987;28;19913;-83
2022/12/30 09:31:24;;;;;;;;;;;7.90;78.70;;;;;;4985333;28;19972;-83
2022/12/30 09:33:50;;;;;;;;;;;7.90;78.40;;;;;;4993253;28;19921;-82
2022/12/30 09:36:15;;;;;;;;;;;7.90;78.40;;;;;;4985802;28;20347;-83
2022/12/30 09:38:41;;;;;;;;;;;8.10;78.00;;;;;;4982341;28;19968;-83
2022/12/30 09:41:06;;;;;;;;;;;8.10;77.50;;;;;;4982642;28;19918;-83
2022/12/30 09:43:41;;;;;;;;;;;8.20;77.30;;;;;;4983473;28;20380;-83
2022/12/30 09:46:23;;;;;;;;;;;8.10;77.80;;;;;;5002123;28;19921;-83
2022/12/30 09:48:52;;;;;;;;;;;8.20;77.60;;;;;;5004830;28;19937;-84
2022/12/30 09:51:21;;;;;;;;;;;8.20;77.60;;;;;;5003949;28;19984;-83
2022/12/30 09:53:55;;;;;;;;;;;8.30;77.30;;;;;;4989997;28;19920;-83
2022/12/30 09:56:25;;;;;;;;;;;8.30;77.40;;;;;;4995330;28;19960;-83
2022/12/30 09:58:51;;;;;;;;;;;8.30;77.10;;;;;;4999775;28;19941;-84
2022/12/30 10:01:29;;;;;;;;;;;8.30;77.10;;;;;;4992807;28;19914;-85
2022/12/30 10:03:56;;;;;;;;;;;8.40;77.00;;;;;;4992782;28;19921;-84
2022/12/30 10:06:21;;;;;;;;;;;8.50;76.70;;;;;;4989140;28;19913;-84
2022/12/30 10:08:47;;;;;;;;;;;8.50;76.80;;;;;;4991717;28;19928;-84
2022/12/30 10:11:26;;;;;;;;;;;8.60;76.70;;;;;;4998069;28;19920;-88
2022/12/30 10:14:12;;;;;;;;;;;8.60;76.10;;;;;;4987050;28;19913;-86
2022/12/30 10:16:37;;;;;;;;;;;8.60;76.50;;;;;;5004094;28;20015;-87
2022/12/30 10:19:35;;;;;;;;;;;8.60;76.30;;;;;;4996672;28;19918;-89
2022/12/30 10:22:00;;;;;;;;;;;8.70;76.40;;;;;;4944327;28;19915;-85
2022/12/30 10:24:36;;;;;;;;;;;8.80;75.60;;;;;;4993194;28;20032;-89
2022/12/30 10:27:05;;;;;;;;;;;8.80;75.70;;;;;;4997138;28;19914;-86
2022/12/30 10:29:33;;;;;;;;;;;8.90;75.30;;;;;;4989149;28;19921;-86
2022/12/30 10:32:09;;;;;;;;;;;8.80;76.30;;;;;;5010822;28;20290;-86
2022/12/30 10:34:35;;;;;;;;;;;8.90;75.60;;;;;;5005557;28;20020;-85
2022/12/30 10:37:02;;;;;;;;;;;8.90;75.80;;;;;;4999658;28;19959;-85
2022/12/30 10:39:32;;;;;;;;;;;9.00;75.30;;;;;;5005492;28;20280;-85
2022/12/30 10:41:57;;;;;;;;;;;9.00;75.00;;;;;;5004017;28;19918;-85
2022/12/30 10:44:31;;;;;;;;;;;9.00;74.70;;;;;;5009103;28;20421;-87
2022/12/30 10:47:00;;;;;;;;;;;9.00;74.90;;;;;;4996677;28;20446;-83
2022/12/30 10:49:49;;;;;;;;;;;9.00;74.80;;;;;;5012334;28;19972;-86
2022/12/30 10:52:15;;;;;;;;;;;9.10;74.50;;;;;;4996898;28;19914;-86
2022/12/30 10:54:40;;;;;;;;;;;9.10;74.90;;;;;;4995370;28;19918;-85
2022/12/30 10:57:13;;;;;;;;;;;9.20;73.80;;;;;;4999709;28;19931;-85
2022/12/30 10:59:39;;;;;;;;;;;9.30;73.40;;;;;;5034812;28;19952;-85
2022/12/30 11:02:21;;;;;;;;;;;9.40;72.90;;;;;;5015044;28;19913;-85
2022/12/30 11:04:47;;;;;;;;;;;9.50;73.00;;;;;;5024594;28;19924;-85
2022/12/30 11:07:13;;;;;;;;;;;9.40;73.00;;;;;;5016852;28;19914;-86
2022/12/30 11:09:39;;;;;;;;;;;9.30;73.20;;;;;;4991685;28;20016;-85
2022/12/30 11:14:58;;;;;;;;;;;9.50;72.50;;;;;;5026480;28;19917;-86
2022/12/30 11:17:26;;;;;;;;;;;9.50;72.10;;;;;;5001985;28;19918;-85
2022/12/30 11:19:53;;;;;;;;;;;9.40;72.30;;;;;;5002438;28;19910;-86
2022/12/30 11:22:19;;;;;;;;;;;9.50;72.50;;;;;;5000374;28;19964;-85
2022/12/30 11:24:53;;;;;;;;;;;9.40;72.40;;;;;;5007559;28;19918;-86
2022/12/30 11:27:27;;;;;;;;;;;9.50;72.40;;;;;;5000672;28;19914;-85
2022/12/30 11:29:52;;;;;;;;;;;9.60;72.10;;;;;;5008824;28;19973;-87
2022/12/30 11:32:17;;;;;;;;;;;9.50;72.20;;;;;;4999010;28;19949;-85
2022/12/30 11:34:43;;;;;;;;;;;9.50;72.70;;;;;;4998317;28;20391;-85
2022/12/30 11:37:29;;;;;;;;;;;9.50;72.50;;;;;;5013012;28;19980;-86
2022/12/30 11:39:55;;;;;;;;;;;9.40;72.70;;;;;;4991600;28;19926;-86
2022/12/30 11:42:27;;;;;;;;;;;9.40;73.00;;;;;;5006394;28;19940;-86
2022/12/30 11:45:11;;;;;;;;;;;9.50;72.70;;;;;;4996669;28;19914;-87
2022/12/30 11:47:42;;;;;;;;;;;9.40;72.60;;;;;;4997505;28;20011;-85
2022/12/30 11:50:13;;;;;;;;;;;9.50;72.60;;;;;;5007683;28;19925;-85
2022/12/30 11:52:39;;;;;;;;;;;9.40;72.70;;;;;;4999012;28;19938;-86
2022/12/30 11:55:04;;;;;;;;;;;9.40;72.60;;;;;;4992766;28;20060;-85
2022/12/30 11:57:31;;;;;;;;;;;9.50;72.60;;;;;;5000687;28;19917;-85
2022/12/30 12:00:25;;;;;;;;;;;9.50;72.50;;;;;;5009621;28;20032;-88
2022/12/30 12:02:59;;;;;;;;;;;9.50;72.70;;;;;;5006797;28;19917;-86
2022/12/30 12:05:28;;;;;;;;;;;9.30;73.10;;;;;;5009957;28;20521;-86
2022/12/30 12:07:55;;;;;;;;;;;9.20;73.70;;;;;;4985748;28;19910;-85
2022/12/30 12:10:23;;;;;;;;;;;9.30;73.90;;;;;;4988126;28;20423;-86
2022/12/30 12:13:00;;;;;;;;;;;9.10;74.20;;;;;;4976828;28;19910;-86
2022/12/30 12:15:35;;;;;;;;;;;9.30;73.20;;;;;;4983764;28;20296;-85
2022/12/30 12:18:19;;;;;;;;;;;9.30;73.10;;;;;;5005823;28;19915;-85
2022/12/30 12:20:56;;;;;;;;;;;9.30;73.20;;;;;;4998789;28;19930;-85
2022/12/30 12:23:25;;;;;;;;;;;9.30;73.60;;;;;;4991552;28;19949;-86
2022/12/30 12:26:06;;;;;;;;;;;9.40;73.50;;;;;;4992042;28;19964;-86
2022/12/30 12:28:33;;;;;;;;;;;9.40;73.40;;;;;;4998923;28;19918;-86
2022/12/30 12:31:17;;;;;;;;;;;9.30;73.80;;;;;;5023648;28;19929;-86
2022/12/30 12:34:05;;;;;;;;;;;9.30;73.60;;;;;;4994459;28;19921;-85
2022/12/30 12:36:30;;;;;;;;;;;9.40;73.10;;;;;;4976339;28;19968;-86
2022/12/30 12:39:16;;;;;;;;;;;9.30;73.10;;;;;;4995682;28;19981;-86
2022/12/30 12:41:51;;;;;;;;;;;9.30;73.50;;;;;;5011361;28;19914;-87
2022/12/30 12:44:28;;;;;;;;;;;9.30;73.60;;;;;;5017841;28;19932;-86
2022/12/30 12:47:06;;;;;;;;;;;9.30;73.60;;;;;;5018749;28;19910;-86
2022/12/30 12:49:51;;;;;;;;;;;9.30;73.40;;;;;;4991036;28;19914;-86
2022/12/30 12:52:26;;;;;;;;;;;9.30;73.40;;;;;;5002898;28;19914;-85
2022/12/30 12:55:13;;;;;;;;;;;9.30;73.50;;;;;;4994877;28;19937;-85
2022/12/30 12:57:57;;;;;;;;;;;9.30;73.60;;;;;;4993979;28;19930;-86
2022/12/30 13:00:25;;;;;;;;;;;9.40;73.60;;;;;;4987915;28;19921;-85
2022/12/30 13:03:09;;;;;;;;;;;9.40;73.40;;;;;;4996005;28;19914;-86
2022/12/30 13:05:37;;;;;;;;;;;9.40;73.70;;;;;;5007275;28;19983;-86
2022/12/30 13:08:03;;;;;;;;;;;9.30;73.80;;;;;;5016180;28;19914;-85
2022/12/30 13:10:47;;;;;;;;;;;9.50;73.60;;;;;;5000864;28;19933;-86
2022/12/30 13:13:21;;;;;;;;;;;9.60;73.20;;;;;;5007801;28;19953;-86
2022/12/30 13:15:52;;;;;;;;;;;9.50;73.70;;;;;;4999460;28;19925;-87
2022/12/30 13:18:20;;;;;;;;;;;9.60;73.30;;;;;;5001689;28;19922;-87
2022/12/30 13:20:48;;;;;;;;;;;9.60;73.20;;;;;;5014431;28;19913;-86
2022/12/30 13:23:17;;;;;;;;;;;9.60;73.20;;;;;;5006536;28;20000;-87
2022/12/30 13:25:46;;;;;;;;;;;9.60;73.30;;;;;;5018580;28;20447;-87
2022/12/30 13:28:23;;;;;;;;;;;9.70;72.80;;;;;;5002127;28;19914;-87
2022/12/30 13:30:58;;;;;;;;;;;9.80;73.10;;;;;;5007446;28;19982;-86
2022/12/30 13:33:32;;;;;;;;;;;9.70;73.00;;;;;;5004797;28;19980;-84
2022/12/30 13:36:16;;;;;;;;;;;9.80;72.60;;;;;;4995335;28;19918;-87
2022/12/30 13:39:09;;;;;;;;;;;9.90;72.40;;;;;;4995272;28;19918;-86
2022/12/30 13:41:53;;;;;;;;;;;9.90;72.70;;;;;;4994396;28;20628;-88
2022/12/30 13:44:19;;;;;;;;;;;10.00;72.70;;;;;;5001902;28;19918;-88
2022/12/30 13:46:49;;;;;;;;;;;9.90;73.00;;;;;;4998695;28;20501;-87
2022/12/30 13:49:29;;;;;;;;;;;9.90;72.90;;;;;;4997223;28;19938;-86
2022/12/30 13:51:59;;;;;;;;;;;10.00;73.10;;;;;;5006389;28;19985;-85
2022/12/30 13:54:26;;;;;;;;;;;10.00;74.10;;;;;;4995361;28;19926;-88
2022/12/30 13:56:51;;;;;;;;;;;9.80;76.10;;;;;;5002065;28;20056;-85
2022/12/30 13:59:22;;;;;;;;;;;9.60;77.60;;;;;;4996495;28;19985;-88
2022/12/30 14:01:48;;;;;;;;;;;9.60;79.20;;;;;;4995943;28;19914;-87
2022/12/30 14:04:28;;;;;;;;;;;9.50;79.80;;;;;;4994099;28;19997;-88
2022/12/30 14:06:54;;;;;;;;;;;9.30;81.90;;;;;;4991237;28;19972;-86
2022/12/30 14:09:22;;;;;;;;;;;9.10;82.50;;;;;;5005759;28;19913;-88
2022/12/30 14:12:03;;;;;;;;;;;9.10;83.10;;;;;;4995022;28;19917;-86
2022/12/30 14:14:33;;;;;;;;;;;9.00;84.10;;;;;;5005154;28;19914;-87
2022/12/30 14:17:10;;;;;;;;;;;9.00;84.10;;;;;;5013144;28;19922;-86
2022/12/30 14:19:55;;;;;;;;;;;9.00;84.10;;;;;;5011926;28;19913;-88
2022/12/30 14:22:39;;;;;;;;;;;8.90;84.70;;;;;;5001863;28;20264;-86
2022/12/30 14:25:13;;;;;;;;;;;8.80;85.40;;;;;;5005881;28;19914;-87
2022/12/30 14:27:52;;;;;;;;;;;8.80;85.70;;;;;;5026327;28;19917;-86
2022/12/30 14:30:23;;;;;;;;;;;8.80;85.60;;;;;;5010997;28;19981;-88
2022/12/30 14:32:56;;;;;;;;;;;8.80;85.40;;;;;;4999075;28;20008;-87
2022/12/30 14:35:21;;;;;;;;;;;8.80;85.40;;;;;;5006048;28;20359;-88
2022/12/30 14:37:47;;;;;;;;;;;8.80;85.20;;;;;;4998161;28;20008;-87
2022/12/30 14:40:31;;;;;;;;;;;8.90;85.00;;;;;;5003231;28;20017;-87
2022/12/30 14:42:57;;;;;;;;;;;8.90;84.80;;;;;;4997387;28;19914;-87
2022/12/30 14:45:24;;;;;;;;;;;8.80;84.60;;;;;;4998780;28;20001;-88
2022/12/30 14:47:50;;;;;;;;;;;9.00;84.70;;;;;;4999877;28;19922;-86
2022/12/30 14:50:17;;;;;;;;;;;9.10;84.30;;;;;;4984405;28;19967;-88
2022/12/30 14:53:02;;;;;;;;;;;9.10;83.60;;;;;;4987498;28;20000;-85
2022/12/30 14:55:29;;;;;;;;;;;9.10;83.90;;;;;;4992086;28;19922;-88
2022/12/30 14:58:02;;;;;;;;;;;9.10;83.60;;;;;;5031439;23;20385;-82
2022/12/30 15:00:29;;;;;;;;;;;9.10;83.90;;;;;;5026407;28;20375;-82
2022/12/30 15:02:56;;;;;;;;;;;9.00;84.40;;;;;;5040248;28;19913;-84
2022/12/30 15:05:23;;;;;;;;;;;9.10;84.90;;;;;;5025503;28;19921;-84
2022/12/30 15:07:54;;;;;;;;;;;9.10;84.50;;;;;;5031041;28;20103;-83
2022/12/30 15:10:25;;;;;;;;;;;9.10;84.80;;;;;;5022284;28;19917;-83
2022/12/30 15:12:52;;;;;;;;;;;9.10;85.20;;;;;;5017705;28;20422;-83
2022/12/30 15:15:22;;;;;;;;;;;9.10;84.90;;;;;;5018663;28;19913;-84
2022/12/30 15:17:47;;;;;;;;;;;9.10;84.70;;;;;;5017889;28;19917;-83
2022/12/30 15:20:25;;;;;;;;;;;9.10;84.80;;;;;;5023128;28;19924;-84
2022/12/30 15:22:51;;;;;;;;;;;9.10;84.60;;;;;;5023748;28;20239;-85
2022/12/30 15:25:17;;;;;;;;;;;9.10;84.60;;;;;;5032126;28;19917;-84
2022/12/30 15:27:43;;;;;;;;;;;9.10;84.60;;;;;;5023628;28;20075;-85